Time;durP1;ratioP1;P1;durP2;ratioP2;P2;SDS_P1;SDS_P2;PMS_P1;PMS_P2;Temp;Humidity;BMP_temperature;BMP_pressure;BME280_temperature;BME280_humidity;BME280_pressure;Samples;Min_cycle;Max_cycle;Signal;HPM_P1;HPM_P2
2023/04/06 00:01:20;;;;;;;;;;;3.90;99.90;;;;;;5094252;28;19924;-69
2023/04/06 00:03:46;;;;;;;;;;;3.80;99.90;;;;;;5060048;28;19982;-71
2023/04/06 00:06:11;;;;;;;;;;;3.80;99.90;;;;;;5094842;28;20357;-70
2023/04/06 00:08:37;;;;;;;;;;;3.80;99.90;;;;;;5094932;28;19969;-70
2023/04/06 00:11:02;;;;;;;;;;;3.80;99.90;;;;;;5094673;28;19978;-71
2023/04/06 00:13:28;;;;;;;;;;;3.70;99.90;;;;;;5076597;28;20019;-70
2023/04/06 00:15:54;;;;;;;;;;;3.70;99.90;;;;;;5076582;28;20345;-70
2023/04/06 00:18:19;;;;;;;;;;;3.70;99.90;;;;;;5076586;28;19931;-69
2023/04/06 00:20:45;;;;;;;;;;;3.70;99.90;;;;;;5094816;28;19925;-70
2023/04/06 00:23:10;;;;;;;;;;;3.60;99.90;;;;;;5076422;28;20015;-70
2023/04/06 00:25:36;;;;;;;;;;;3.60;99.90;;;;;;5075887;28;19924;-70
2023/04/06 00:28:03;;;;;;;;;;;3.60;99.90;;;;;;5076620;28;19928;-69
2023/04/06 00:30:29;;;;;;;;;;;3.60;99.90;;;;;;5076225;28;19969;-70
2023/04/06 00:32:54;;;;;;;;;;;3.60;99.90;;;;;;5059805;28;19928;-69
2023/04/06 00:35:20;;;;;;;;;;;3.50;99.90;;;;;;5075720;28;19924;-68
2023/04/06 00:37:46;;;;;;;;;;;3.50;99.90;;;;;;5094100;28;19928;-70
2023/04/06 00:40:12;;;;;;;;;;;3.50;99.90;;;;;;5075922;28;19925;-70
2023/04/06 00:42:38;;;;;;;;;;;3.50;99.90;;;;;;5081916;28;19928;-70
2023/04/06 00:45:04;;;;;;;;;;;3.50;99.90;;;;;;5064239;28;19924;-70
2023/04/06 00:47:29;;;;;;;;;;;3.50;99.90;;;;;;5077979;28;20270;-70
2023/04/06 00:49:56;;;;;;;;;;;3.40;99.90;;;;;;5077889;28;19924;-70
2023/04/06 00:52:21;;;;;;;;;;;3.40;99.90;;;;;;5095473;28;20068;-70
2023/04/06 00:54:47;;;;;;;;;;;3.40;99.90;;;;;;5077290;28;20084;-70
2023/04/06 00:57:13;;;;;;;;;;;3.40;99.90;;;;;;5076246;28;20410;-70
2023/04/06 00:59:39;;;;;;;;;;;3.40;99.90;;;;;;5075809;28;20062;-70
2023/04/06 01:02:05;;;;;;;;;;;3.40;99.90;;;;;;5059418;28;19949;-69
2023/04/06 01:04:31;;;;;;;;;;;3.40;99.90;;;;;;5058592;28;19924;-70
2023/04/06 01:06:56;;;;;;;;;;;3.30;99.90;;;;;;5092975;28;20042;-69
2023/04/06 01:09:22;;;;;;;;;;;3.40;99.90;;;;;;5058780;28;19975;-69
2023/04/06 01:11:48;;;;;;;;;;;3.30;99.90;;;;;;5058951;28;20361;-70
2023/04/06 01:14:14;;;;;;;;;;;3.30;99.90;;;;;;5093406;28;19970;-69
2023/04/06 01:16:40;;;;;;;;;;;3.30;99.90;;;;;;5093074;28;19924;-70
2023/04/06 01:19:09;;;;;;;;;;;3.30;99.90;;;;;;5075304;28;20023;-69
2023/04/06 01:21:36;;;;;;;;;;;3.30;99.90;;;;;;5075184;28;19969;-70
2023/04/06 01:24:01;;;;;;;;;;;3.30;99.90;;;;;;5075498;28;20011;-70
2023/04/06 01:26:29;;;;;;;;;;;3.20;99.90;;;;;;5092860;28;20019;-70
2023/04/06 01:28:54;;;;;;;;;;;3.20;99.90;;;;;;5075015;28;20360;-70
2023/04/06 01:31:21;;;;;;;;;;;3.20;99.90;;;;;;5093263;28;19963;-70
2023/04/06 01:33:46;;;;;;;;;;;3.10;99.90;;;;;;5092917;28;19928;-69
2023/04/06 01:36:12;;;;;;;;;;;3.10;99.90;;;;;;5074941;28;19943;-69
2023/04/06 01:38:38;;;;;;;;;;;3.10;99.90;;;;;;5092221;28;20262;-70
2023/04/06 01:41:03;;;;;;;;;;;3.10;99.90;;;;;;5074403;28;19969;-70
2023/04/06 01:43:29;;;;;;;;;;;3.10;99.90;;;;;;5074509;28;19939;-69
2023/04/06 01:45:55;;;;;;;;;;;3.10;99.90;;;;;;5092972;28;19924;-69
2023/04/06 01:48:20;;;;;;;;;;;3.00;99.90;;;;;;5092719;28;19924;-71
2023/04/06 01:50:46;;;;;;;;;;;3.00;99.90;;;;;;5074393;28;19939;-70
2023/04/06 01:53:12;;;;;;;;;;;3.00;99.90;;;;;;5058304;28;19924;-70
2023/04/06 01:55:37;;;;;;;;;;;2.90;99.90;;;;;;5074524;28;19978;-70
2023/04/06 01:58:03;;;;;;;;;;;2.90;99.90;;;;;;5092639;28;19924;-70
2023/04/06 02:00:28;;;;;;;;;;;2.90;99.90;;;;;;5094229;28;20286;-68
2023/04/06 02:02:54;;;;;;;;;;;2.90;99.90;;;;;;5100060;28;20010;-68
2023/04/06 02:05:20;;;;;;;;;;;2.90;99.90;;;;;;5097365;28;19931;-69
2023/04/06 02:07:46;;;;;;;;;;;2.80;99.90;;;;;;5074451;28;19931;-70
2023/04/06 02:10:12;;;;;;;;;;;2.80;99.90;;;;;;5058260;28;19924;-70
2023/04/06 02:12:37;;;;;;;;;;;2.70;99.90;;;;;;5074628;28;19963;-70
2023/04/06 02:15:03;;;;;;;;;;;2.70;99.90;;;;;;5092516;28;20325;-70
2023/04/06 02:17:29;;;;;;;;;;;2.70;99.90;;;;;;5057465;28;19972;-69
2023/04/06 02:19:54;;;;;;;;;;;2.70;99.90;;;;;;5073900;28;20019;-68
2023/04/06 02:22:20;;;;;;;;;;;2.60;99.90;;;;;;5041270;28;19924;-70
2023/04/06 02:24:46;;;;;;;;;;;2.60;99.90;;;;;;5057676;28;19928;-70
2023/04/06 02:27:12;;;;;;;;;;;2.60;99.90;;;;;;5092419;28;19961;-69
2023/04/06 02:29:37;;;;;;;;;;;2.60;99.90;;;;;;5057576;28;20296;-69
2023/04/06 02:32:03;;;;;;;;;;;2.60;99.90;;;;;;5092298;28;19924;-69
2023/04/06 02:34:29;;;;;;;;;;;2.60;99.90;;;;;;5074616;28;19931;-70
2023/04/06 02:36:55;;;;;;;;;;;2.50;99.90;;;;;;5056510;28;19924;-70
2023/04/06 02:39:20;;;;;;;;;;;2.50;99.90;;;;;;5074118;28;19973;-70
2023/04/06 02:41:46;;;;;;;;;;;2.50;99.90;;;;;;5092090;28;19928;-70
2023/04/06 02:44:11;;;;;;;;;;;2.40;99.90;;;;;;5092060;28;19972;-69
2023/04/06 02:46:37;;;;;;;;;;;2.50;99.90;;;;;;5074257;28;19924;-70
2023/04/06 02:49:03;;;;;;;;;;;2.50;99.90;;;;;;5091648;28;19928;-70
2023/04/06 02:51:28;;;;;;;;;;;2.50;99.90;;;;;;5074212;28;19924;-70
2023/04/06 02:53:54;;;;;;;;;;;2.40;99.90;;;;;;5073666;28;20484;-70
2023/04/06 02:56:21;;;;;;;;;;;2.40;99.90;;;;;;5091917;28;19973;-69
2023/04/06 02:58:47;;;;;;;;;;;2.40;99.90;;;;;;5091280;28;19925;-69
2023/04/06 03:01:12;;;;;;;;;;;2.40;99.90;;;;;;5057396;28;19928;-69
2023/04/06 03:03:38;;;;;;;;;;;2.40;99.90;;;;;;5073083;28;20014;-68
2023/04/06 03:06:04;;;;;;;;;;;2.30;99.90;;;;;;5092001;28;19931;-70
2023/04/06 03:08:30;;;;;;;;;;;2.30;99.90;;;;;;5057280;28;20337;-69
2023/04/06 03:10:55;;;;;;;;;;;2.30;99.90;;;;;;5091563;28;19924;-70
2023/04/06 03:13:21;;;;;;;;;;;2.30;99.90;;;;;;5073912;28;19924;-70
2023/04/06 03:15:47;;;;;;;;;;;2.30;99.90;;;;;;5091611;28;19928;-70
2023/04/06 03:18:12;;;;;;;;;;;2.30;99.90;;;;;;5091807;28;19989;-70
2023/04/06 03:20:38;;;;;;;;;;;2.30;99.90;;;;;;5091950;28;20349;-69
2023/04/06 03:23:04;;;;;;;;;;;2.30;99.90;;;;;;5094920;28;20346;-69
2023/04/06 03:25:32;;;;;;;;;;;2.40;99.90;;;;;;5060676;28;19924;-69
2023/04/06 03:27:58;;;;;;;;;;;2.30;99.90;;;;;;5075177;28;19931;-70
2023/04/06 03:30:23;;;;;;;;;;;2.40;99.90;;;;;;5095717;28;19924;-69
2023/04/06 03:32:49;;;;;;;;;;;2.30;99.90;;;;;;5095464;28;19924;-70
2023/04/06 03:35:15;;;;;;;;;;;2.30;99.90;;;;;;5077296;28;19932;-70
2023/04/06 03:37:41;;;;;;;;;;;2.30;99.90;;;;;;5077560;28;19931;-69
2023/04/06 03:40:06;;;;;;;;;;;2.30;99.90;;;;;;5095263;28;20250;-70
2023/04/06 03:42:32;;;;;;;;;;;2.20;99.90;;;;;;5077120;28;19928;-70
2023/04/06 03:44:58;;;;;;;;;;;2.20;99.90;;;;;;5094520;28;19931;-70
2023/04/06 03:47:24;;;;;;;;;;;2.20;99.90;;;;;;5076689;28;19924;-70
2023/04/06 03:49:50;;;;;;;;;;;2.20;99.90;;;;;;5094806;28;19924;-71
2023/04/06 03:52:15;;;;;;;;;;;2.10;99.90;;;;;;5076673;28;19928;-69
2023/04/06 03:54:41;;;;;;;;;;;2.10;99.90;;;;;;5076567;28;19924;-70
2023/04/06 03:57:06;;;;;;;;;;;2.10;99.90;;;;;;5094392;28;20273;-71
2023/04/06 03:59:32;;;;;;;;;;;2.00;99.90;;;;;;5094916;28;19928;-70
2023/04/06 04:01:57;;;;;;;;;;;2.00;99.90;;;;;;5094394;28;20075;-69
2023/04/06 04:04:23;;;;;;;;;;;2.00;99.90;;;;;;5076612;28;20018;-70
2023/04/06 04:06:49;;;;;;;;;;;1.90;99.90;;;;;;5076224;28;19931;-71
2023/04/06 04:09:14;;;;;;;;;;;2.00;99.90;;;;;;5060012;28;19935;-70
2023/04/06 04:11:40;;;;;;;;;;;1.90;99.90;;;;;;5059971;28;19924;-69
2023/04/06 04:14:06;;;;;;;;;;;1.90;99.90;;;;;;5076402;28;19920;-69
2023/04/06 04:16:31;;;;;;;;;;;1.90;99.90;;;;;;5094484;28;19931;-70
2023/04/06 04:18:58;;;;;;;;;;;1.90;99.90;;;;;;5094011;28;20297;-70
2023/04/06 04:21:25;;;;;;;;;;;2.00;99.90;;;;;;5076634;28;19928;-70
2023/04/06 04:23:52;;;;;;;;;;;2.00;99.90;;;;;;5076112;28;20270;-70
2023/04/06 04:26:18;;;;;;;;;;;2.00;99.90;;;;;;5076623;28;20359;-69
2023/04/06 04:28:43;;;;;;;;;;;2.00;99.90;;;;;;5094201;28;20014;-70
2023/04/06 04:31:09;;;;;;;;;;;2.00;99.90;;;;;;5059409;28;20034;-69
2023/04/06 04:33:35;;;;;;;;;;;2.00;99.90;;;;;;5094167;28;19924;-69
2023/04/06 04:36:00;;;;;;;;;;;2.00;99.90;;;;;;5075708;28;19924;-70
2023/04/06 04:38:26;;;;;;;;;;;1.90;99.90;;;;;;5059114;28;19924;-69
2023/04/06 04:40:51;;;;;;;;;;;2.00;99.90;;;;;;5092914;28;19924;-70
2023/04/06 04:43:17;;;;;;;;;;;1.90;99.90;;;;;;5079854;28;19924;-70
2023/04/06 04:45:43;;;;;;;;;;;1.90;99.90;;;;;;5096279;28;19924;-70
2023/04/06 04:48:09;;;;;;;;;;;1.90;99.90;;;;;;5075336;28;19973;-69
2023/04/06 04:50:34;;;;;;;;;;;1.90;99.90;;;;;;5075785;28;19931;-70
2023/04/06 04:53:00;;;;;;;;;;;1.90;99.90;;;;;;5093183;28;19931;-70
2023/04/06 04:55:25;;;;;;;;;;;1.90;99.90;;;;;;5093165;28;19954;-69
2023/04/06 04:57:51;;;;;;;;;;;1.90;99.90;;;;;;5075672;28;20007;-69
2023/04/06 05:00:17;;;;;;;;;;;1.80;99.90;;;;;;5093733;28;19931;-70
2023/04/06 05:02:42;;;;;;;;;;;1.80;99.90;;;;;;5093254;28;20069;-70
2023/04/06 05:05:08;;;;;;;;;;;1.80;99.90;;;;;;5074588;28;20395;-69
2023/04/06 05:07:34;;;;;;;;;;;1.80;99.90;;;;;;5075457;28;19924;-70
2023/04/06 05:10:00;;;;;;;;;;;1.80;99.90;;;;;;5092618;28;19958;-69
2023/04/06 05:12:26;;;;;;;;;;;1.90;99.90;;;;;;5075621;28;19924;-71
2023/04/06 05:14:53;;;;;;;;;;;1.80;99.90;;;;;;5075310;28;20341;-69
2023/04/06 05:17:18;;;;;;;;;;;1.80;99.90;;;;;;5075047;28;19969;-70
2023/04/06 05:19:44;;;;;;;;;;;1.80;99.90;;;;;;5074938;28;20026;-69
2023/04/06 05:22:10;;;;;;;;;;;1.90;99.90;;;;;;5074557;28;19924;-70
2023/04/06 05:24:35;;;;;;;;;;;1.90;99.90;;;;;;5074908;28;20281;-70
2023/04/06 05:27:01;;;;;;;;;;;1.90;99.90;;;;;;5074739;28;19924;-70
2023/04/06 05:29:27;;;;;;;;;;;1.90;99.90;;;;;;5058397;28;19928;-70
2023/04/06 05:31:52;;;;;;;;;;;1.90;99.90;;;;;;5092739;28;19935;-70
2023/04/06 05:34:18;;;;;;;;;;;1.90;99.90;;;;;;5092356;28;20289;-69
2023/04/06 05:36:44;;;;;;;;;;;2.00;99.90;;;;;;5074482;28;19931;-71
2023/04/06 05:39:10;;;;;;;;;;;2.10;99.90;;;;;;5074151;28;19923;-70
2023/04/06 05:41:35;;;;;;;;;;;2.20;99.90;;;;;;5058001;28;19925;-70
2023/04/06 05:44:01;;;;;;;;;;;2.60;99.90;;;;;;5092455;28;19972;-69
2023/04/06 05:46:26;;;;;;;;;;;3.10;99.90;;;;;;5074776;28;19924;-70
2023/04/06 05:48:52;;;;;;;;;;;3.60;99.90;;;;;;5074581;28;19993;-71
2023/04/06 05:51:18;;;;;;;;;;;4.10;99.90;;;;;;5074147;28;20057;-70
2023/04/06 05:53:43;;;;;;;;;;;4.50;99.90;;;;;;5074281;28;19924;-70
2023/04/06 05:56:09;;;;;;;;;;;4.80;99.90;;;;;;5092068;28;19950;-69
2023/04/06 05:58:35;;;;;;;;;;;5.10;99.90;;;;;;5074452;28;19924;-71
2023/04/06 06:01:01;;;;;;;;;;;5.40;99.90;;;;;;5073340;28;20242;-69
2023/04/06 06:03:26;;;;;;;;;;;5.70;99.90;;;;;;5074011;28;19939;-69
2023/04/06 06:05:52;;;;;;;;;;;6.00;99.90;;;;;;5092232;28;20397;-69
2023/04/06 06:08:18;;;;;;;;;;;6.30;99.90;;;;;;5057590;28;19925;-69
2023/04/06 06:10:43;;;;;;;;;;;6.60;99.90;;;;;;5074004;28;19931;-68
2023/04/06 06:13:09;;;;;;;;;;;6.80;99.90;;;;;;5073891;28;20065;-69
2023/04/06 06:15:35;;;;;;;;;;;6.90;99.90;;;;;;5092160;28;20434;-70
2023/04/06 06:18:01;;;;;;;;;;;6.60;99.90;;;;;;5074361;28;19931;-70
2023/04/06 06:20:27;;;;;;;;;;;6.20;99.90;;;;;;5092141;28;19924;-69
2023/04/06 06:22:52;;;;;;;;;;;6.20;99.90;;;;;;5092116;28;20407;-69
2023/04/06 06:25:18;;;;;;;;;;;6.60;99.90;;;;;;5091626;28;20266;-69
2023/04/06 06:27:44;;;;;;;;;;;6.90;99.90;;;;;;5091843;28;19924;-69
2023/04/06 06:30:10;;;;;;;;;;;7.20;99.90;;;;;;5091592;28;19972;-68
2023/04/06 06:32:35;;;;;;;;;;;7.50;99.90;;;;;;5073972;28;19924;-69
2023/04/06 06:35:01;;;;;;;;;;;7.70;99.90;;;;;;5091783;28;20341;-69
2023/04/06 06:37:26;;;;;;;;;;;7.90;99.90;;;;;;5073306;28;19931;-69
2023/04/06 06:39:52;;;;;;;;;;;8.20;99.90;;;;;;5073574;28;20304;-68
2023/04/06 06:42:18;;;;;;;;;;;8.30;99.50;;;;;;5056581;28;20420;-68
2023/04/06 06:44:43;;;;;;;;;;;8.30;98.80;;;;;;5057046;28;19924;-69
2023/04/06 06:47:09;;;;;;;;;;;8.50;99.90;;;;;;5091293;28;19924;-69
2023/04/06 06:49:35;;;;;;;;;;;8.60;99.10;;;;;;5073601;28;20259;-69
2023/04/06 06:52:00;;;;;;;;;;;8.80;99.70;;;;;;5091686;28;19931;-69
2023/04/06 06:54:26;;;;;;;;;;;9.10;99.70;;;;;;5073263;28;20001;-68
2023/04/06 06:56:51;;;;;;;;;;;9.50;99.10;;;;;;5073704;28;20123;-69
2023/04/06 06:59:17;;;;;;;;;;;9.70;98.90;;;;;;5090711;28;20014;-69
2023/04/06 07:01:43;;;;;;;;;;;9.80;97.30;;;;;;5091775;28;19993;-70
2023/04/06 07:04:08;;;;;;;;;;;9.80;97.00;;;;;;5092523;28;20370;-69
2023/04/06 07:06:37;;;;;;;;;;;9.60;97.00;;;;;;5077854;28;20292;-68
2023/04/06 07:09:03;;;;;;;;;;;9.80;96.70;;;;;;5095621;28;20237;-69
2023/04/06 07:11:29;;;;;;;;;;;10.10;97.30;;;;;;5095381;28;19973;-69
2023/04/06 07:13:55;;;;;;;;;;;10.40;96.20;;;;;;5060816;28;19931;-69
2023/04/06 07:16:20;;;;;;;;;;;10.50;96.60;;;;;;5077244;28;20358;-70
2023/04/06 07:18:46;;;;;;;;;;;10.90;95.70;;;;;;5077169;28;19989;-71
2023/04/06 07:21:11;;;;;;;;;;;11.20;96.20;;;;;;5060221;28;19946;-71
2023/04/06 07:23:39;;;;;;;;;;;11.30;95.10;;;;;;5078701;28;20199;-71
2023/04/06 07:26:05;;;;;;;;;;;11.50;94.70;;;;;;5062843;28;19931;-72
2023/04/06 07:28:31;;;;;;;;;;;11.70;94.90;;;;;;5076659;28;19924;-71
2023/04/06 07:30:56;;;;;;;;;;;12.00;93.50;;;;;;5077100;28;19970;-73
2023/04/06 07:33:22;;;;;;;;;;;11.90;92.70;;;;;;5076720;28;19928;-72
2023/04/06 07:35:48;;;;;;;;;;;11.90;93.00;;;;;;5076715;28;19970;-70
2023/04/06 07:38:13;;;;;;;;;;;12.10;92.60;;;;;;5076890;28;20314;-70
2023/04/06 07:40:39;;;;;;;;;;;12.30;93.30;;;;;;5095130;28;20373;-71
2023/04/06 07:43:04;;;;;;;;;;;12.70;92.70;;;;;;5095121;28;20436;-71
2023/04/06 07:45:30;;;;;;;;;;;13.00;92.70;;;;;;5076641;28;19924;-72
2023/04/06 07:47:56;;;;;;;;;;;13.40;91.90;;;;;;5077388;28;19924;-71
2023/04/06 07:50:22;;;;;;;;;;;13.60;91.30;;;;;;5043021;28;20097;-74
2023/04/06 07:52:47;;;;;;;;;;;14.10;92.10;;;;;;5095163;28;20499;-73
2023/04/06 07:55:13;;;;;;;;;;;14.20;91.70;;;;;;5076852;28;19970;-70
2023/04/06 07:57:38;;;;;;;;;;;14.70;91.90;;;;;;5094513;28;19924;-72
2023/04/06 08:00:04;;;;;;;;;;;15.00;91.10;;;;;;5076643;28;20007;-70
2023/04/06 08:02:33;;;;;;;;;;;15.00;90.90;;;;;;5094096;28;20393;-69
2023/04/06 08:04:59;;;;;;;;;;;15.20;88.70;;;;;;5094685;28;19978;-70
2023/04/06 08:07:25;;;;;;;;;;;;;;;;;;5094233;28;19930;-71
2023/04/06 08:09:51;;;;;;;;;;;;;;;;;;5094337;28;20014;-72
2023/04/06 08:12:17;;;;;;;;;;;;;;;;;;5076377;28;19924;-69
2023/04/06 08:14:43;;;;;;;;;;;15.60;88.70;;;;;;5076350;28;19928;-69
2023/04/06 08:17:08;;;;;;;;;;;16.60;86.10;;;;;;5076315;28;19971;-69
2023/04/06 08:19:34;;;;;;;;;;;16.60;86.10;;;;;;5093896;28;20119;-70
2023/04/06 08:22:00;;;;;;;;;;;16.80;83.10;;;;;;5094292;28;19924;-71
2023/04/06 08:24:25;;;;;;;;;;;16.70;83.80;;;;;;5076083;28;19969;-71
2023/04/06 08:26:51;;;;;;;;;;;16.60;83.70;;;;;;5094194;28;20286;-71
2023/04/06 08:29:17;;;;;;;;;;;16.60;83.50;;;;;;5094240;28;19928;-71
2023/04/06 08:31:43;;;;;;;;;;;16.70;82.70;;;;;;5093920;28;19931;-71
2023/04/06 08:34:09;;;;;;;;;;;16.80;83.20;;;;;;5094121;28;20396;-72
2023/04/06 08:36:34;;;;;;;;;;;16.90;81.80;;;;;;5093380;28;19971;-72
2023/04/06 08:39:00;;;;;;;;;;;17.00;81.80;;;;;;5094009;28;20415;-71
2023/04/06 08:41:27;;;;;;;;;;;17.20;81.90;;;;;;5075464;28;20357;-70
2023/04/06 08:43:57;;;;;;;;;;;17.30;81.20;;;;;;5093971;28;19973;-71
2023/04/06 08:46:28;;;;;;;;;;;17.30;81.80;;;;;;5093862;28;19928;-72
2023/04/06 08:48:54;;;;;;;;;;;17.50;80.70;;;;;;5077247;28;20339;-72
2023/04/06 08:51:21;;;;;;;;;;;17.60;81.20;;;;;;5075622;28;19978;-70
2023/04/06 08:53:48;;;;;;;;;;;17.30;79.80;;;;;;5075770;28;19924;-72
2023/04/06 08:56:14;;;;;;;;;;;17.30;79.00;;;;;;5075533;28;19963;-73
2023/04/06 08:58:40;;;;;;;;;;;17.60;79.30;;;;;;5075164;28;19924;-71
2023/04/06 09:01:10;;;;;;;;;;;17.70;79.70;;;;;;5075799;28;19972;-71
2023/04/06 09:03:39;;;;;;;;;;;17.90;78.80;;;;;;5058721;28;19924;-71
2023/04/06 09:06:05;;;;;;;;;;;17.80;77.60;;;;;;5093275;28;19978;-73
2023/04/06 09:08:32;;;;;;;;;;;17.70;78.00;;;;;;5075320;28;20338;-72
2023/04/06 09:10:57;;;;;;;;;;;17.70;78.00;;;;;;5093299;28;19989;-71
2023/04/06 09:13:23;;;;;;;;;;;17.50;77.60;;;;;;5093043;28;19971;-69
2023/04/06 09:15:58;;;;;;;;;;;17.50;77.60;;;;;;5074827;28;20018;-72
2023/04/06 09:18:30;;;;;;;;;;;17.20;77.10;;;;;;5092947;28;20019;-70
2023/04/06 09:21:06;;;;;;;;;;;17.10;77.20;;;;;;5093121;28;19924;-71
2023/04/06 09:23:32;;;;;;;;;;;16.80;76.90;;;;;;5075084;28;20205;-74
2023/04/06 09:26:06;;;;;;;;;;;16.10;78.00;;;;;;5092762;28;19979;-72
2023/04/06 09:28:48;;;;;;;;;;;15.90;79.10;;;;;;5092621;28;19950;-72
2023/04/06 09:31:22;;;;;;;;;;;15.80;79.30;;;;;;5092995;28;19976;-73
2023/04/06 09:33:47;;;;;;;;;;;15.70;79.80;;;;;;5075015;28;19924;-73
2023/04/06 09:36:15;;;;;;;;;;;15.40;77.50;;;;;;5074718;28;19932;-74
2023/04/06 09:38:54;;;;;;;;;;;15.10;77.30;;;;;;5074327;28;19932;-72
2023/04/06 09:41:23;;;;;;;;;;;14.80;78.00;;;;;;5075119;28;20013;-73
2023/04/06 09:43:50;;;;;;;;;;;14.60;78.80;;;;;;5092458;28;19925;-73
2023/04/06 09:46:16;;;;;;;;;;;14.40;79.70;;;;;;5092640;28;20007;-73
2023/04/06 09:48:42;;;;;;;;;;;14.10;79.40;;;;;;5092188;28;20036;-71
2023/04/06 09:51:10;;;;;;;;;;;13.90;79.90;;;;;;5092630;28;19924;-73
2023/04/06 09:53:37;;;;;;;;;;;13.70;80.80;;;;;;5074162;28;19924;-71
2023/04/06 09:56:03;;;;;;;;;;;13.80;80.10;;;;;;5074446;28;19928;-72
2023/04/06 09:58:33;;;;;;;;;;;13.80;80.00;;;;;;5074380;28;20383;-70
2023/04/06 10:00:59;;;;;;;;;;;13.70;80.80;;;;;;5092722;28;19935;-73
2023/04/06 10:03:45;;;;;;;;;;;13.50;80.80;;;;;;5092414;28;20293;-72
2023/04/06 10:06:12;;;;;;;;;;;13.40;81.10;;;;;;5091933;28;20380;-73
2023/04/06 10:08:40;;;;;;;;;;;13.40;81.90;;;;;;5091965;28;19924;-72
2023/04/06 10:11:06;;;;;;;;;;;13.30;82.40;;;;;;5092509;28;19928;-73
2023/04/06 10:13:32;;;;;;;;;;;13.10;83.00;;;;;;5092176;28;19924;-68
2023/04/06 10:16:00;;;;;;;;;;;13.10;83.40;;;;;;5074540;28;19931;-71
2023/04/06 10:18:26;;;;;;;;;;;13.20;84.10;;;;;;5074497;28;19924;-72
2023/04/06 10:20:57;;;;;;;;;;;13.20;83.80;;;;;;5092147;28;20557;-71
2023/04/06 10:23:26;;;;;;;;;;;13.20;83.80;;;;;;5092355;28;19932;-71
2023/04/06 10:25:53;;;;;;;;;;;13.30;84.20;;;;;;5057393;28;19930;-70
2023/04/06 10:28:19;;;;;;;;;;;13.40;83.70;;;;;;5092281;28;19975;-70
2023/04/06 10:30:45;;;;;;;;;;;13.30;84.00;;;;;;5091756;28;19924;-69
2023/04/06 10:33:14;;;;;;;;;;;13.50;84.10;;;;;;5074402;28;19925;-69
2023/04/06 10:35:39;;;;;;;;;;;13.70;84.10;;;;;;5073645;28;20396;-70
2023/04/06 10:38:05;;;;;;;;;;;13.80;84.00;;;;;;5093489;28;19924;-69
2023/04/06 10:40:34;;;;;;;;;;;13.70;83.90;;;;;;5096072;28;20342;-70
2023/04/06 10:43:10;;;;;;;;;;;13.80;83.40;;;;;;5077792;28;20365;-70
2023/04/06 10:45:36;;;;;;;;;;;13.90;83.30;;;;;;5077897;28;19975;-68
2023/04/06 10:48:12;;;;;;;;;;;13.80;83.50;;;;;;5078097;28;19924;-71
2023/04/06 10:50:40;;;;;;;;;;;13.80;83.80;;;;;;5077451;28;20394;-69
2023/04/06 10:53:06;;;;;;;;;;;13.80;83.50;;;;;;5095772;28;19924;-70
2023/04/06 10:55:31;;;;;;;;;;;13.70;83.70;;;;;;5095743;28;19931;-69
2023/04/06 10:57:57;;;;;;;;;;;13.70;83.70;;;;;;5077349;28;19920;-69
2023/04/06 11:00:23;;;;;;;;;;;13.60;84.20;;;;;;5095753;28;19923;-70
2023/04/06 11:02:48;;;;;;;;;;;13.70;83.50;;;;;;5060978;28;19931;-70
2023/04/06 11:05:14;;;;;;;;;;;13.70;83.30;;;;;;5095895;28;19928;-71
2023/04/06 11:07:40;;;;;;;;;;;13.70;83.50;;;;;;5077204;28;20020;-67
2023/04/06 11:10:07;;;;;;;;;;;13.70;83.60;;;;;;5077477;28;19978;-69
2023/04/06 11:12:32;;;;;;;;;;;13.70;83.80;;;;;;5075334;28;19964;-69
2023/04/06 11:15:04;;;;;;;;;;;13.70;84.00;;;;;;5093127;28;19967;-70
2023/04/06 11:17:33;;;;;;;;;;;13.70;83.80;;;;;;5095119;28;20029;-70
2023/04/06 11:19:59;;;;;;;;;;;13.80;83.90;;;;;;5096248;28;20011;-73
2023/04/06 11:22:25;;;;;;;;;;;13.90;84.90;;;;;;5078258;28;19967;-70
2023/04/06 11:24:51;;;;;;;;;;;14.00;80.70;;;;;;5095150;28;19924;-70
2023/04/06 11:27:18;;;;;;;;;;;14.10;80.90;;;;;;5094298;28;19924;-70
2023/04/06 11:29:45;;;;;;;;;;;14.20;81.30;;;;;;5076612;28;19924;-68
2023/04/06 11:32:11;;;;;;;;;;;14.20;80.10;;;;;;5094608;28;20305;-70
2023/04/06 11:34:38;;;;;;;;;;;14.30;80.10;;;;;;5095179;28;19931;-71
2023/04/06 11:37:07;;;;;;;;;;;14.30;80.70;;;;;;5076271;28;19947;-71
2023/04/06 11:39:37;;;;;;;;;;;14.20;80.20;;;;;;5093411;28;19928;-67
2023/04/06 11:42:03;;;;;;;;;;;14.20;80.40;;;;;;5094521;28;20028;-71
2023/04/06 11:44:32;;;;;;;;;;;14.30;80.60;;;;;;5060008;28;19927;-68
2023/04/06 11:46:59;;;;;;;;;;;14.20;80.20;;;;;;5094320;28;19943;-70
2023/04/06 11:49:30;;;;;;;;;;;14.20;80.60;;;;;;5093829;28;19930;-70
2023/04/06 11:51:57;;;;;;;;;;;14.20;80.60;;;;;;5094379;28;20281;-70
2023/04/06 11:54:31;;;;;;;;;;;14.20;80.70;;;;;;5073856;28;20257;-71
2023/04/06 11:56:57;;;;;;;;;;;14.30;81.10;;;;;;5093561;28;19925;-71
2023/04/06 11:59:23;;;;;;;;;;;14.50;81.50;;;;;;5094380;28;20039;-72
2023/04/06 12:01:48;;;;;;;;;;;14.50;81.00;;;;;;5093248;28;20436;-70
2023/04/06 12:04:14;;;;;;;;;;;14.60;81.10;;;;;;5094065;28;19939;-70
2023/04/06 12:06:40;;;;;;;;;;;14.70;81.30;;;;;;5059841;28;19924;-71
2023/04/06 12:09:05;;;;;;;;;;;14.70;79.40;;;;;;5094072;28;19920;-71
2023/04/06 12:11:31;;;;;;;;;;;14.60;79.60;;;;;;5094568;28;20022;-70
2023/04/06 12:13:57;;;;;;;;;;;14.50;79.80;;;;;;5093822;28;19947;-70
2023/04/06 12:16:22;;;;;;;;;;;14.40;80.40;;;;;;5094039;28;19971;-69
2023/04/06 12:18:48;;;;;;;;;;;14.30;80.60;;;;;;5075753;28;19931;-67
2023/04/06 12:21:14;;;;;;;;;;;14.40;81.20;;;;;;5059331;28;19980;-69
2023/04/06 12:23:39;;;;;;;;;;;14.40;79.80;;;;;;5094041;28;20058;-69
2023/04/06 12:26:05;;;;;;;;;;;14.30;79.70;;;;;;5093556;28;20149;-70
2023/04/06 12:28:30;;;;;;;;;;;14.20;80.30;;;;;;5093888;28;19924;-70
2023/04/06 12:30:56;;;;;;;;;;;14.20;80.10;;;;;;5093283;28;19924;-67
2023/04/06 12:33:22;;;;;;;;;;;14.20;80.20;;;;;;5075942;28;19958;-69
2023/04/06 12:35:47;;;;;;;;;;;14.20;80.50;;;;;;5059044;28;19924;-69
2023/04/06 12:38:13;;;;;;;;;;;14.30;81.10;;;;;;5093488;28;19991;-69
2023/04/06 12:40:39;;;;;;;;;;;14.20;81.10;;;;;;5075553;28;19971;-69
2023/04/06 12:43:05;;;;;;;;;;;14.10;81.70;;;;;;5093345;28;19924;-69
2023/04/06 12:45:31;;;;;;;;;;;14.00;81.60;;;;;;5093765;28;20016;-68
2023/04/06 12:47:57;;;;;;;;;;;14.00;80.80;;;;;;5075524;28;19931;-69
2023/04/06 12:50:22;;;;;;;;;;;13.90;79.60;;;;;;5076245;28;19935;-68
2023/04/06 12:52:48;;;;;;;;;;;14.00;79.80;;;;;;5093773;28;19979;-68
2023/04/06 12:55:13;;;;;;;;;;;14.10;79.70;;;;;;5093509;28;19924;-70
2023/04/06 12:57:40;;;;;;;;;;;14.10;78.90;;;;;;5093555;28;19924;-69
2023/04/06 13:00:07;;;;;;;;;;;14.00;79.60;;;;;;5075099;28;19973;-69
2023/04/06 13:02:33;;;;;;;;;;;14.00;80.20;;;;;;5092524;28;20344;-70
2023/04/06 13:04:58;;;;;;;;;;;14.10;80.00;;;;;;5092938;28;19969;-70
2023/04/06 13:07:24;;;;;;;;;;;14.20;80.20;;;;;;5075054;28;19924;-69
2023/04/06 13:09:50;;;;;;;;;;;14.20;81.10;;;;;;5058728;28;20266;-68
2023/04/06 13:12:16;;;;;;;;;;;14.30;79.80;;;;;;5075126;28;19928;-68
2023/04/06 13:14:42;;;;;;;;;;;14.20;79.60;;;;;;5075112;28;20328;-68
2023/04/06 13:17:08;;;;;;;;;;;14.20;79.80;;;;;;5058164;28;20340;-70
2023/04/06 13:19:33;;;;;;;;;;;14.10;80.40;;;;;;5074662;28;19924;-69
2023/04/06 13:21:59;;;;;;;;;;;14.10;80.00;;;;;;5092385;28;19931;-68
2023/04/06 13:24:25;;;;;;;;;;;14.10;80.00;;;;;;5074947;28;20019;-69
2023/04/06 13:26:50;;;;;;;;;;;14.10;79.60;;;;;;5074744;28;19973;-69
2023/04/06 13:29:16;;;;;;;;;;;14.10;79.90;;;;;;5057885;28;19923;-70
2023/04/06 13:31:41;;;;;;;;;;;14.00;80.90;;;;;;5092786;28;19935;-69
2023/04/06 13:34:07;;;;;;;;;;;14.10;79.90;;;;;;5092383;28;19986;-68
2023/04/06 13:36:33;;;;;;;;;;;14.10;80.10;;;;;;5092107;28;19975;-69
2023/04/06 13:38:58;;;;;;;;;;;14.00;79.40;;;;;;5074183;28;19931;-68
2023/04/06 13:41:25;;;;;;;;;;;13.90;80.50;;;;;;5092546;28;19924;-70
2023/04/06 13:43:51;;;;;;;;;;;13.90;80.70;;;;;;5074586;28;19928;-71
2023/04/06 13:46:16;;;;;;;;;;;14.00;80.60;;;;;;5074221;28;19974;-71
2023/04/06 13:48:42;;;;;;;;;;;13.90;80.60;;;;;;5092742;28;19928;-70
2023/04/06 13:51:12;;;;;;;;;;;13.80;80.70;;;;;;5074343;28;20049;-73
2023/04/06 13:53:38;;;;;;;;;;;13.80;81.40;;;;;;5092612;28;19931;-70
2023/04/06 13:56:04;;;;;;;;;;;13.90;81.60;;;;;;5092112;28;20281;-68
2023/04/06 13:58:30;;;;;;;;;;;13.90;81.30;;;;;;5074794;28;19931;-71
2023/04/06 14:01:01;;;;;;;;;;;13.90;81.20;;;;;;5092525;28;19924;-70
2023/04/06 14:03:27;;;;;;;;;;;13.90;81.40;;;;;;5074459;28;19924;-68
2023/04/06 14:05:53;;;;;;;;;;;13.90;82.00;;;;;;5073945;28;19931;-70
2023/04/06 14:08:18;;;;;;;;;;;14.10;81.50;;;;;;5074092;28;19924;-68
2023/04/06 14:10:44;;;;;;;;;;;14.00;81.70;;;;;;5092564;28;19924;-69
2023/04/06 14:13:10;;;;;;;;;;;14.00;82.20;;;;;;5073661;28;19924;-69
2023/04/06 14:15:35;;;;;;;;;;;14.00;82.70;;;;;;5092227;28;19975;-69
2023/04/06 14:18:01;;;;;;;;;;;14.10;83.20;;;;;;5091986;28;19931;-67